createdAt,value
2018-10-12T00:00:52.855Z,15.57
2018-10-12T00:01:52.860Z,15.59
2018-10-12T00:02:52.833Z,15.54
2018-10-12T00:03:52.825Z,15.61
2018-10-12T00:04:52.812Z,15.57
2018-10-12T00:05:52.803Z,15.64
2018-10-12T00:06:52.802Z,15.65
2018-10-12T00:07:52.777Z,15.73
2018-10-12T00:08:52.767Z,15.65
2018-10-12T00:09:52.755Z,15.64
2018-10-12T00:10:52.745Z,15.70
2018-10-12T00:11:52.760Z,15.70
2018-10-12T00:12:52.719Z,15.70
2018-10-12T00:13:52.709Z,15.65
2018-10-12T00:14:52.699Z,15.65
2018-10-12T00:15:52.686Z,15.64
2018-10-12T00:16:52.679Z,15.68
2018-10-12T00:17:52.678Z,15.64
2018-10-12T00:18:52.652Z,15.65
2018-10-12T00:19:52.641Z,15.64
2018-10-12T00:20:52.638Z,15.61
2018-10-12T00:21:52.621Z,15.57
2018-10-12T00:22:52.622Z,15.64
2018-10-12T00:23:52.595Z,15.59
2018-10-12T00:24:52.584Z,15.70
2018-10-12T00:25:52.571Z,15.62
2018-10-12T00:26:52.562Z,15.67
2018-10-12T00:27:52.567Z,15.62
2018-10-12T00:28:52.540Z,15.64
2018-10-12T00:29:52.529Z,15.65
2018-10-12T00:30:52.518Z,15.64
2018-10-12T00:31:52.505Z,15.57
2018-10-12T00:32:52.507Z,15.61
2018-10-12T00:33:52.481Z,15.64
2018-10-12T00:34:52.471Z,15.59
2018-10-12T00:35:52.460Z,15.64
2018-10-12T00:36:52.448Z,15.62
2018-10-12T00:37:52.455Z,15.61
2018-10-12T00:38:52.426Z,15.64
2018-10-12T00:39:52.427Z,15.49
2018-10-12T00:40:52.425Z,15.49
2018-10-12T00:41:52.400Z,15.47
2018-10-12T00:42:52.378Z,15.47
2018-10-12T00:43:52.383Z,15.51
2018-10-12T00:44:52.357Z,15.42
2018-10-12T00:45:52.345Z,15.43
2018-10-12T00:46:52.332Z,15.37
2018-10-12T00:47:52.323Z,15.39
2018-10-12T00:48:52.327Z,15.31
2018-10-12T00:49:52.375Z,15.28
2018-10-12T00:50:52.290Z,15.31
2018-10-12T00:51:52.280Z,15.22
2018-10-12T00:52:52.267Z,15.27
2018-10-12T00:53:52.273Z,15.24
2018-10-12T00:54:52.243Z,15.21
2018-10-12T00:55:52.236Z,15.27
2018-10-12T00:56:52.221Z,15.21
2018-10-12T00:57:52.215Z,15.24
2018-10-12T00:58:52.213Z,15.25
2018-10-12T00:59:52.190Z,15.24
2018-10-12T01:00:52.179Z,15.27
2018-10-12T01:01:52.163Z,15.24
2018-10-12T01:02:52.154Z,15.29
2018-10-12T01:03:52.155Z,15.28
2018-10-12T01:04:52.135Z,15.28
2018-10-12T01:05:52.120Z,15.40
2018-10-12T01:06:52.111Z,15.37
2018-10-12T01:07:52.096Z,15.51
2018-10-12T01:08:52.098Z,15.49
2018-10-12T01:09:52.073Z,15.64
2018-10-12T01:10:52.062Z,15.67
2018-10-12T01:11:52.051Z,15.59
2018-10-12T01:12:52.037Z,15.65
2018-10-12T01:13:52.059Z,15.64
2018-10-12T01:14:52.021Z,15.65
2018-10-12T01:15:52.005Z,15.72
2018-10-12T01:16:51.995Z,15.82
2018-10-12T01:17:51.984Z,15.82
2018-10-12T01:18:51.970Z,15.77
2018-10-12T01:19:51.978Z,15.84
2018-10-12T01:20:51.949Z,15.77
2018-10-12T01:21:51.937Z,15.79
2018-10-12T01:22:51.925Z,15.91
2018-10-12T01:23:51.913Z,15.91
2018-10-12T01:24:51.917Z,16.01
2018-10-12T01:25:51.893Z,15.88
2018-10-12T01:26:51.879Z,16.00
2018-10-12T01:27:51.870Z,16.04
2018-10-12T01:28:51.858Z,16.01
2018-10-12T01:29:51.867Z,16.00
2018-10-12T01:30:51.834Z,16.12
2018-10-12T01:31:51.823Z,16.10
2018-10-12T01:32:51.817Z,16.04
2018-10-12T01:33:51.801Z,16.13
2018-10-12T01:34:51.808Z,16.29
2018-10-12T01:35:51.778Z,16.31
2018-10-12T01:36:51.769Z,16.28
2018-10-12T01:37:51.756Z,16.33
2018-10-12T01:38:51.745Z,16.32
2018-10-12T01:39:51.734Z,16.38
2018-10-12T01:40:51.738Z,16.33
2018-10-12T01:41:51.713Z,16.33
2018-10-12T01:42:51.698Z,16.36
2018-10-12T01:43:51.701Z,16.35
2018-10-12T01:44:51.676Z,16.33
2018-10-12T01:45:51.680Z,16.32
2018-10-12T01:46:51.653Z,16.35
2018-10-12T01:47:51.641Z,16.33
2018-10-12T01:48:51.630Z,16.35
2018-10-12T01:49:51.619Z,16.47
2018-10-12T01:50:51.627Z,16.47
2018-10-12T01:51:51.597Z,16.54
2018-10-12T01:52:51.592Z,16.53
2018-10-12T01:53:51.573Z,16.51
2018-10-12T01:54:51.571Z,16.61
2018-10-12T01:55:51.567Z,16.66
2018-10-12T01:56:51.540Z,16.75
2018-10-12T01:57:51.533Z,16.60
2018-10-12T01:58:51.517Z,16.68
2018-10-12T01:59:51.506Z,16.66
2018-10-12T02:00:51.508Z,16.66
2018-10-12T02:01:51.483Z,16.66
2018-10-12T02:02:51.476Z,16.71
2018-10-12T02:03:51.461Z,16.66
2018-10-12T02:04:51.448Z,16.54
2018-10-12T02:05:51.450Z,16.60
2018-10-12T02:06:51.428Z,16.58
2018-10-12T02:07:51.416Z,16.58
2018-10-12T02:08:51.403Z,16.66
2018-10-12T02:09:51.402Z,16.69
2018-10-12T02:10:51.398Z,16.69
2018-10-12T02:11:51.370Z,16.72
2018-10-12T02:12:51.359Z,16.72
2018-10-12T02:13:51.348Z,16.71
2018-10-12T02:14:51.338Z,16.81
2018-10-12T02:15:51.339Z,16.76
2018-10-12T02:16:51.314Z,16.86
2018-10-12T02:17:51.302Z,16.89
2018-10-12T02:18:51.291Z,16.78
2018-10-12T02:19:51.281Z,16.81
2018-10-12T02:20:51.288Z,16.76
2018-10-12T02:21:51.257Z,16.83
2018-10-12T02:22:51.253Z,16.83
2018-10-12T02:23:51.231Z,16.69
2018-10-12T02:24:51.224Z,16.74
2018-10-12T02:25:51.213Z,16.74
2018-10-12T02:26:51.211Z,16.68
2018-10-12T02:27:51.193Z,16.74
2018-10-12T02:28:51.180Z,16.72
2018-10-12T02:29:51.164Z,16.66
2018-10-12T02:30:51.156Z,16.72
2018-10-12T02:31:51.157Z,16.68
2018-10-12T02:32:51.131Z,16.65
2018-10-12T02:33:51.122Z,16.65
2018-10-12T02:34:51.112Z,16.54
2018-10-12T02:35:51.099Z,16.64
2018-10-12T02:36:51.102Z,16.60
2018-10-12T02:37:51.077Z,16.51
2018-10-12T02:38:51.073Z,16.53
2018-10-12T02:39:51.055Z,16.66
2018-10-12T02:40:51.043Z,16.54
2018-10-12T02:41:51.047Z,16.57
2018-10-12T02:42:51.027Z,16.50
2018-10-12T02:43:51.009Z,16.47
2018-10-12T02:44:50.996Z,16.46
2018-10-12T02:45:50.998Z,16.36
2018-10-12T02:46:50.998Z,16.36
2018-10-12T02:47:50.963Z,16.33
2018-10-12T02:48:50.951Z,16.24
2018-10-12T02:49:50.940Z,16.21
2018-10-12T02:50:50.928Z,16.20
2018-10-12T02:51:50.917Z,16.24
2018-10-12T02:52:50.921Z,16.23
2018-10-12T02:53:50.896Z,16.28
2018-10-12T02:54:50.885Z,16.24
2018-10-12T02:55:50.874Z,16.08
2018-10-12T02:56:50.861Z,16.15
2018-10-12T02:57:50.864Z,16.12
2018-10-12T02:58:50.838Z,16.09
2018-10-12T02:59:50.828Z,16.04
2018-10-12T03:00:50.817Z,16.02
2018-10-12T03:01:50.810Z,16.00
2018-10-12T03:02:50.805Z,16.01
2018-10-12T03:03:50.786Z,15.98
2018-10-12T03:04:50.777Z,15.86
2018-10-12T03:05:50.763Z,16.00
2018-10-12T03:06:50.750Z,16.00
2018-10-12T03:07:50.750Z,15.86
2018-10-12T03:08:50.726Z,15.92
2018-10-12T03:09:50.714Z,15.82
2018-10-12T03:10:50.703Z,15.77
2018-10-12T03:11:50.693Z,15.84
2018-10-12T03:12:50.691Z,15.82
2018-10-12T03:13:50.669Z,15.73
2018-10-12T03:14:50.662Z,15.68
2018-10-12T03:15:50.645Z,15.67
2018-10-12T03:16:50.639Z,15.70
2018-10-12T03:17:50.642Z,15.64
2018-10-12T03:18:50.612Z,15.61
2018-10-12T03:19:50.604Z,15.59
2018-10-12T03:20:50.588Z,15.58
2018-10-12T03:21:50.576Z,15.55
2018-10-12T03:22:50.589Z,15.52
2018-10-12T03:23:50.555Z,15.49
2018-10-12T03:24:50.550Z,15.58
2018-10-12T03:25:50.533Z,15.61
2018-10-12T03:26:50.523Z,15.58
2018-10-12T03:27:50.508Z,15.52
2018-10-12T03:28:50.512Z,15.59
2018-10-12T03:29:50.486Z,15.57
2018-10-12T03:30:50.478Z,15.59
2018-10-12T03:31:50.465Z,15.65
2018-10-12T03:32:50.452Z,15.67
2018-10-12T03:33:50.457Z,15.67
2018-10-12T03:34:50.431Z,15.70
2018-10-12T03:35:50.421Z,15.68
2018-10-12T03:36:50.408Z,15.70
2018-10-12T03:37:50.398Z,15.79
2018-10-12T03:38:50.401Z,15.75
2018-10-12T03:39:50.373Z,15.79
2018-10-12T03:40:50.361Z,15.75
2018-10-12T03:41:50.350Z,15.80
2018-10-12T03:42:50.339Z,15.82
2018-10-12T03:43:50.344Z,15.76
2018-10-12T03:44:50.322Z,15.83
2018-10-12T03:45:50.303Z,15.80
2018-10-12T03:46:50.307Z,15.84
2018-10-12T03:47:50.281Z,15.82
2018-10-12T03:48:50.288Z,15.86
2018-10-12T03:49:50.259Z,15.80
2018-10-12T03:50:50.250Z,15.79
2018-10-12T03:51:50.286Z,15.79
2018-10-12T03:52:50.225Z,15.83
2018-10-12T03:53:50.233Z,15.76
2018-10-12T03:54:50.202Z,15.75
2018-10-12T03:55:50.193Z,15.80
2018-10-12T03:56:50.181Z,15.76
2018-10-12T03:57:50.171Z,15.84
2018-10-12T03:58:50.187Z,15.90
2018-10-12T03:59:50.144Z,15.86
2018-10-12T04:00:50.136Z,15.98
2018-10-12T04:01:50.123Z,15.90
2018-10-12T04:02:50.251Z,15.91
2018-10-12T04:03:50.111Z,15.79
2018-10-12T04:04:50.105Z,15.82
2018-10-12T04:05:50.080Z,15.80
2018-10-12T04:06:50.080Z,15.77
2018-10-12T04:07:50.056Z,15.76
2018-10-12T04:08:50.054Z,15.75
2018-10-12T04:09:50.046Z,15.72
2018-10-12T04:10:50.021Z,15.68
2018-10-12T04:11:50.020Z,15.61
2018-10-12T04:12:50.015Z,15.62
2018-10-12T04:13:49.988Z,15.57
2018-10-12T04:14:49.990Z,15.57
2018-10-12T04:15:49.966Z,15.58
2018-10-12T04:16:49.959Z,15.43
2018-10-12T04:17:49.950Z,15.52
2018-10-12T04:18:49.929Z,15.46
2018-10-12T04:19:49.934Z,15.55
2018-10-12T04:20:49.910Z,15.59
2018-10-12T04:21:49.905Z,15.64
2018-10-12T04:22:49.890Z,15.67
2018-10-12T04:23:49.873Z,15.65
2018-10-12T04:24:49.887Z,15.70
2018-10-12T04:25:49.852Z,15.67
2018-10-12T04:26:49.839Z,15.73
2018-10-12T04:27:49.828Z,15.57
2018-10-12T04:28:49.818Z,15.67
2018-10-12T04:29:49.819Z,15.61
2018-10-12T04:30:49.822Z,15.72
2018-10-12T04:31:49.784Z,15.58
2018-10-12T04:32:49.775Z,15.64
2018-10-12T04:33:49.761Z,15.62
2018-10-12T04:34:49.748Z,15.64
2018-10-12T04:35:49.753Z,15.64
2018-10-12T04:36:49.726Z,15.67
2018-10-12T04:37:49.714Z,15.59
2018-10-12T04:38:49.705Z,15.70
2018-10-12T04:39:49.692Z,15.54
2018-10-12T04:40:49.697Z,15.59
2018-10-12T04:41:49.669Z,15.55
2018-10-12T04:42:49.665Z,15.47
2018-10-12T04:43:49.647Z,15.49
2018-10-12T04:44:49.635Z,15.36
2018-10-12T04:45:49.642Z,15.49
2018-10-12T04:46:49.610Z,15.44
2018-10-12T04:47:49.602Z,15.36
2018-10-12T04:48:49.592Z,15.27
2018-10-12T04:49:49.577Z,15.28
2018-10-12T04:50:49.579Z,15.27
2018-10-12T04:51:49.556Z,15.27
2018-10-12T04:52:49.543Z,15.24
2018-10-12T04:53:49.566Z,15.28
2018-10-12T04:54:49.522Z,15.28
2018-10-12T04:55:49.527Z,15.28
2018-10-12T04:56:49.497Z,15.29
2018-10-12T04:57:49.487Z,15.27
2018-10-12T04:58:49.481Z,15.35
2018-10-12T04:59:49.464Z,15.31
2018-10-12T05:00:49.476Z,15.25
2018-10-12T05:01:49.443Z,15.22
2018-10-12T05:02:49.431Z,15.29
2018-10-12T05:03:49.420Z,15.24
2018-10-12T05:04:49.406Z,15.25
2018-10-12T05:05:49.427Z,15.09
2018-10-12T05:06:49.386Z,15.18
2018-10-12T05:07:49.426Z,15.14
2018-10-12T05:08:49.381Z,15.04
2018-10-12T05:09:49.350Z,15.03
2018-10-12T05:10:49.346Z,15.00
2018-10-12T05:11:49.345Z,14.96
2018-10-12T05:12:49.318Z,15.00
2018-10-12T05:13:49.308Z,14.89
2018-10-12T05:14:49.295Z,15.03
2018-10-12T05:15:49.283Z,14.85
2018-10-12T05:16:49.288Z,14.88
2018-10-12T05:17:49.264Z,14.81
2018-10-12T05:18:49.249Z,14.86
2018-10-12T05:19:49.240Z,14.81
2018-10-12T05:20:49.228Z,14.82
2018-10-12T05:21:49.235Z,14.78
2018-10-12T05:22:49.225Z,14.81
2018-10-12T05:23:49.199Z,14.73
2018-10-12T05:24:49.182Z,14.84
2018-10-12T05:25:49.174Z,14.78
2018-10-12T05:26:49.172Z,14.81
2018-10-12T05:27:49.148Z,14.84
2018-10-12T05:28:49.136Z,14.84
2018-10-12T05:29:49.124Z,14.79
2018-10-12T05:30:49.113Z,14.81
2018-10-12T05:31:49.118Z,14.82
2018-10-12T05:32:49.093Z,14.77
2018-10-12T05:33:49.083Z,14.84
2018-10-12T05:34:49.072Z,14.79
2018-10-12T05:35:49.055Z,14.70
2018-10-12T05:36:49.060Z,14.84
2018-10-12T05:37:49.037Z,14.78
2018-10-12T05:38:49.023Z,14.79
2018-10-12T05:39:49.009Z,14.78
2018-10-12T05:40:49.004Z,14.81
2018-10-12T05:41:49.056Z,14.77
2018-10-12T05:42:49.007Z,14.86
2018-10-12T05:43:49.086Z,14.86
2018-10-12T05:44:48.953Z,14.72
2018-10-12T05:45:48.942Z,14.78
2018-10-12T05:46:48.945Z,14.82
2018-10-12T05:47:48.921Z,14.78
2018-10-12T05:48:48.975Z,14.84
2018-10-12T05:49:48.900Z,14.82
2018-10-12T05:50:48.889Z,14.78
2018-10-12T05:51:48.895Z,14.73
2018-10-12T05:52:48.872Z,14.72
2018-10-12T05:53:48.851Z,14.78
2018-10-12T05:54:48.844Z,14.68
2018-10-12T05:55:48.867Z,14.68
2018-10-12T05:56:48.818Z,14.70
2018-10-12T05:57:48.819Z,14.58
2018-10-12T05:58:48.796Z,14.72
2018-10-12T05:59:48.785Z,14.72
2018-10-12T06:00:48.774Z,14.82
2018-10-12T06:01:48.770Z,14.82
2018-10-12T06:02:48.765Z,14.88
2018-10-12T06:03:48.740Z,14.84
2018-10-12T06:04:48.729Z,14.89
2018-10-12T06:05:48.716Z,15.02
2018-10-12T06:06:48.706Z,14.96
2018-10-12T06:07:48.710Z,15.11
2018-10-12T06:08:48.686Z,15.09
2018-10-12T06:09:48.775Z,15.14
2018-10-12T06:10:48.662Z,15.07
2018-10-12T06:11:48.647Z,15.09
2018-10-12T06:12:48.669Z,15.11
2018-10-12T06:13:48.632Z,15.14
2018-10-12T06:14:48.615Z,15.15
2018-10-12T06:15:48.667Z,15.14
2018-10-12T06:16:48.591Z,15.15
2018-10-12T06:17:48.593Z,15.06
2018-10-12T06:18:48.568Z,15.14
2018-10-12T06:19:48.560Z,15.07
2018-10-12T06:20:48.549Z,15.17
2018-10-12T06:21:48.539Z,15.10
2018-10-12T06:22:48.551Z,15.27
2018-10-12T06:23:48.513Z,15.18
2018-10-12T06:24:48.500Z,15.22
2018-10-12T06:25:48.491Z,15.18
2018-10-12T06:26:48.520Z,15.19
2018-10-12T06:27:48.466Z,15.17
2018-10-12T06:28:48.469Z,15.18
2018-10-12T06:29:48.443Z,15.19
2018-10-12T06:30:48.436Z,15.07
2018-10-12T06:31:48.426Z,15.14
2018-10-12T06:32:48.427Z,15.04
2018-10-12T06:33:48.418Z,15.04
2018-10-12T06:34:48.393Z,15.00
2018-10-12T06:35:48.379Z,15.07
2018-10-12T06:36:48.369Z,15.07
2018-10-12T06:37:48.357Z,15.14
2018-10-12T06:38:48.356Z,15.10
2018-10-12T06:39:48.333Z,15.19
2018-10-12T06:40:48.387Z,15.28
2018-10-12T06:41:48.522Z,15.27
2018-10-12T06:42:48.299Z,15.33
2018-10-12T06:43:48.301Z,15.37
2018-10-12T06:44:48.275Z,15.58
2018-10-12T06:45:48.266Z,15.59
2018-10-12T06:46:48.324Z,15.58
2018-10-12T06:47:48.241Z,15.65
2018-10-12T06:48:48.257Z,15.75
2018-10-12T06:49:48.217Z,15.79
2018-10-12T06:50:48.205Z,15.83
2018-10-12T06:51:48.195Z,15.83
2018-10-12T06:52:48.185Z,15.82
2018-10-12T06:53:48.216Z,15.90
2018-10-12T06:54:48.179Z,15.94
2018-10-12T06:55:48.148Z,15.86
2018-10-12T06:56:48.138Z,15.98
2018-10-12T06:57:48.130Z,15.91
2018-10-12T06:58:48.116Z,16.02
2018-10-12T06:59:48.144Z,15.98
2018-10-12T07:00:48.094Z,16.08
2018-10-12T07:01:48.080Z,16.20
2018-10-12T07:02:48.074Z,16.31
2018-10-12T07:03:48.063Z,16.23
2018-10-12T07:04:48.061Z,16.28
2018-10-12T07:05:48.101Z,16.26
2018-10-12T07:06:48.027Z,16.16
2018-10-12T07:07:48.016Z,16.28
2018-10-12T07:08:48.002Z,16.16
2018-10-12T07:09:48.004Z,16.26
2018-10-12T07:10:47.983Z,16.24
2018-10-12T07:11:47.966Z,16.24
2018-10-12T07:12:47.959Z,16.29
2018-10-12T07:13:48.005Z,16.33
2018-10-12T07:14:47.950Z,16.35
2018-10-12T07:15:47.927Z,16.31
2018-10-12T07:16:47.912Z,16.28
2018-10-12T07:17:47.900Z,16.33
2018-10-12T07:18:47.891Z,16.49
2018-10-12T07:19:47.901Z,16.42
2018-10-12T07:20:47.867Z,16.47
2018-10-12T07:21:47.856Z,16.54
2018-10-12T07:22:47.843Z,16.57
2018-10-12T07:23:47.831Z,16.69
2018-10-12T07:24:47.819Z,16.61
2018-10-12T07:25:47.828Z,16.65
2018-10-12T07:26:47.797Z,16.76
2018-10-12T07:27:47.786Z,16.79
2018-10-12T07:28:47.775Z,16.89
2018-10-12T07:29:47.763Z,16.90
2018-10-12T07:30:47.767Z,17.01
2018-10-12T07:31:47.745Z,17.01
2018-10-12T07:32:47.733Z,17.09
2018-10-12T07:33:47.728Z,17.05
2018-10-12T07:34:47.708Z,17.02
2018-10-12T07:35:47.714Z,17.22
2018-10-12T07:36:47.687Z,17.27
2018-10-12T07:37:47.752Z,17.30
2018-10-12T07:38:47.665Z,17.38
2018-10-12T07:39:47.653Z,17.44
2018-10-12T07:40:47.658Z,17.42
2018-10-12T07:41:47.631Z,17.42
2018-10-12T07:42:47.621Z,17.44
2018-10-12T07:43:47.608Z,17.45
2018-10-12T07:44:47.596Z,17.36
2018-10-12T07:45:47.602Z,17.56
2018-10-12T07:46:47.580Z,17.63
2018-10-12T07:47:47.564Z,17.51
2018-10-12T07:48:47.557Z,17.63
2018-10-12T07:49:47.539Z,17.71
2018-10-12T07:50:47.548Z,17.68
2018-10-12T07:51:47.519Z,17.60
2018-10-12T07:52:47.510Z,17.68
2018-10-12T07:53:47.497Z,17.65
2018-10-12T07:54:47.484Z,17.68
2018-10-12T07:55:47.505Z,17.78
2018-10-12T07:56:47.464Z,17.80
2018-10-12T07:57:47.451Z,17.83
2018-10-12T07:58:47.440Z,17.92
2018-10-12T07:59:47.433Z,17.98
2018-10-12T08:00:47.436Z,18.07
2018-10-12T08:01:47.422Z,18.18
2018-10-12T08:02:47.394Z,18.18
2018-10-12T08:03:47.391Z,18.19
2018-10-12T08:04:47.378Z,18.16
2018-10-12T08:05:47.359Z,18.22
2018-10-12T08:06:47.427Z,18.29
2018-10-12T08:07:47.339Z,18.19
2018-10-12T08:08:47.325Z,18.33
2018-10-12T08:09:47.386Z,18.29
2018-10-12T08:10:47.304Z,18.25
2018-10-12T08:11:47.307Z,18.29
2018-10-12T08:12:47.285Z,18.34
2018-10-12T08:13:47.280Z,18.44
2018-10-12T08:14:47.261Z,18.45
2018-10-12T08:15:47.248Z,18.45
2018-10-12T08:16:47.245Z,18.58
2018-10-12T08:17:47.224Z,18.66
2018-10-12T08:18:47.215Z,18.68
2018-10-12T08:19:47.205Z,18.65
2018-10-12T08:20:47.189Z,18.80
2018-10-12T08:21:47.200Z,18.80
2018-10-12T08:22:47.168Z,18.75
2018-10-12T08:23:47.157Z,18.95
2018-10-12T08:24:47.142Z,18.88
2018-10-12T08:25:47.139Z,18.90
2018-10-12T08:26:47.124Z,18.98
2018-10-12T08:27:47.121Z,19.08
2018-10-12T08:28:47.106Z,19.15
2018-10-12T08:29:47.088Z,19.21
2018-10-12T08:30:47.079Z,19.30
2018-10-12T08:31:47.064Z,19.33
2018-10-12T08:32:47.065Z,19.45
2018-10-12T08:33:47.043Z,19.59
2018-10-12T08:34:47.031Z,19.69
2018-10-12T08:35:47.017Z,19.84
2018-10-12T08:36:47.010Z,20.04
2018-10-12T08:37:47.007Z,20.19
2018-10-12T08:38:46.987Z,20.29
2018-10-12T08:39:46.976Z,20.50
2018-10-12T08:40:46.960Z,20.75
2018-10-12T08:41:47.006Z,20.99
2018-10-12T08:42:46.951Z,21.03
2018-10-12T08:43:46.925Z,21.11
2018-10-12T08:44:46.918Z,21.33
2018-10-12T08:45:46.904Z,21.42
2018-10-12T08:46:46.890Z,21.37
2018-10-12T08:47:46.896Z,21.45
2018-10-12T08:48:46.869Z,21.55
2018-10-12T08:49:46.860Z,21.70
2018-10-12T08:50:46.848Z,21.77
2018-10-12T08:51:46.835Z,21.82
2018-10-12T08:52:46.855Z,21.79
2018-10-12T08:53:46.814Z,21.79
2018-10-12T08:54:46.803Z,21.79
2018-10-12T08:55:46.795Z,21.64
2018-10-12T08:56:46.781Z,21.64
2018-10-12T08:57:46.769Z,21.42
2018-10-12T08:58:46.771Z,21.54
2018-10-12T08:59:46.747Z,21.43
2018-10-12T09:00:46.737Z,21.54
2018-10-12T09:01:46.722Z,21.45
2018-10-12T09:02:46.755Z,21.51
2018-10-12T09:03:46.714Z,21.51
2018-10-12T09:04:46.688Z,21.45
2018-10-12T09:05:46.680Z,21.37
2018-10-12T09:06:46.668Z,21.54
2018-10-12T09:07:46.660Z,21.61
2018-10-12T09:08:46.664Z,21.61
2018-10-12T09:09:46.753Z,21.66
2018-10-12T09:10:46.622Z,21.62
2018-10-12T09:11:46.612Z,21.66
2018-10-12T09:12:46.602Z,21.60
2018-10-12T09:13:46.605Z,21.45
2018-10-12T09:14:46.579Z,21.50
2018-10-12T09:15:46.567Z,21.43
2018-10-12T09:16:46.554Z,21.42
2018-10-12T09:17:46.543Z,21.37
2018-10-12T09:18:46.545Z,21.37
2018-10-12T09:19:46.521Z,21.27
2018-10-12T09:20:46.540Z,21.35
2018-10-12T09:21:46.550Z,21.29
2018-10-12T09:22:46.490Z,21.39
2018-10-12T09:23:46.489Z,21.46
2018-10-12T09:24:46.468Z,21.52
2018-10-12T09:25:46.458Z,21.62
2018-10-12T09:26:46.482Z,21.61
2018-10-12T09:27:46.433Z,21.72
2018-10-12T09:28:46.436Z,21.75
2018-10-12T09:29:46.411Z,21.76
2018-10-12T09:30:46.398Z,21.79
2018-10-12T09:31:46.386Z,21.80
2018-10-12T09:32:46.372Z,21.82
2018-10-12T09:33:46.396Z,21.79
2018-10-12T09:34:46.352Z,21.75
2018-10-12T09:35:46.340Z,21.76
2018-10-12T09:36:46.486Z,21.80
2018-10-12T09:37:46.322Z,21.57
2018-10-12T09:38:46.310Z,21.64
2018-10-12T09:39:46.313Z,21.58
2018-10-12T09:40:46.283Z,21.57
2018-10-12T09:41:46.274Z,21.58
2018-10-12T09:42:46.262Z,21.54
2018-10-12T09:43:46.254Z,21.55
2018-10-12T09:44:46.258Z,21.58
2018-10-12T09:45:46.230Z,21.62
2018-10-12T09:46:46.220Z,21.61
2018-10-12T09:47:46.212Z,21.60
2018-10-12T09:48:46.193Z,21.52
2018-10-12T09:49:46.198Z,21.60
2018-10-12T09:50:46.174Z,21.60
2018-10-12T09:51:46.161Z,21.55
2018-10-12T09:52:46.150Z,21.62
2018-10-12T09:53:46.139Z,21.64
2018-10-12T09:54:46.144Z,21.64
2018-10-12T09:55:46.163Z,21.80
2018-10-12T09:56:46.109Z,21.77
2018-10-12T09:57:46.094Z,21.83
2018-10-12T09:58:46.081Z,21.93
2018-10-12T09:59:46.087Z,22.00
2018-10-12T10:00:46.060Z,21.98
2018-10-12T10:01:46.055Z,21.99
2018-10-12T10:02:46.036Z,22.04
2018-10-12T10:03:46.025Z,22.15
2018-10-12T10:04:46.030Z,22.22
2018-10-12T10:05:46.019Z,22.18
2018-10-12T10:06:45.994Z,22.22
2018-10-12T10:07:46.083Z,22.26
2018-10-12T10:08:46.133Z,22.32
2018-10-12T10:09:45.961Z,22.50
2018-10-12T10:10:45.961Z,22.57
2018-10-12T10:11:45.937Z,22.59
2018-10-12T10:12:45.924Z,22.65
2018-10-12T10:13:45.930Z,22.60
2018-10-12T10:14:45.906Z,22.57
2018-10-12T10:15:45.908Z,22.57
2018-10-12T10:16:45.882Z,22.65
2018-10-12T10:17:45.869Z,22.85
2018-10-12T10:18:45.857Z,22.99
2018-10-12T10:19:45.845Z,22.98
2018-10-12T10:20:45.852Z,23.10
2018-10-12T10:21:45.826Z,23.34
2018-10-12T10:22:45.812Z,23.50
2018-10-12T10:23:45.804Z,23.56
2018-10-12T10:24:45.791Z,23.65
2018-10-12T10:25:45.795Z,23.88
2018-10-12T10:26:45.769Z,23.99
2018-10-12T10:27:45.758Z,24.18
2018-10-12T10:28:45.746Z,24.32
2018-10-12T10:29:45.735Z,24.42
2018-10-12T10:30:45.738Z,24.40
2018-10-12T10:31:45.713Z,24.30
2018-10-12T10:32:45.703Z,24.21
2018-10-12T10:33:45.690Z,24.36
2018-10-12T10:34:45.683Z,24.40
2018-10-12T10:35:45.683Z,24.42
2018-10-12T10:36:45.662Z,24.66
2018-10-12T10:37:45.653Z,24.78
2018-10-12T10:38:45.638Z,24.84
2018-10-12T10:39:45.626Z,24.85
2018-10-12T10:40:45.634Z,24.95
2018-10-12T10:41:45.603Z,25.08
2018-10-12T10:42:45.592Z,25.21
2018-10-12T10:43:45.580Z,25.23
2018-10-12T10:44:45.567Z,25.31
2018-10-12T10:45:45.557Z,25.51
2018-10-12T10:46:45.564Z,25.50
2018-10-12T10:47:45.536Z,25.29
2018-10-12T10:48:45.523Z,24.84
2018-10-12T10:49:45.520Z,24.65
2018-10-12T10:50:45.504Z,24.33
2018-10-12T10:51:45.506Z,24.14
2018-10-12T10:52:45.478Z,24.23
2018-10-12T10:53:45.555Z,24.30
2018-10-12T10:54:45.460Z,24.32
2018-10-12T10:55:45.450Z,24.36
2018-10-12T10:56:45.458Z,24.43
2018-10-12T10:57:45.425Z,24.50
2018-10-12T10:58:45.411Z,24.66
2018-10-12T10:59:45.400Z,24.70
2018-10-12T11:00:45.451Z,24.89
2018-10-12T11:01:45.398Z,25.08
2018-10-12T11:02:45.367Z,25.21
2018-10-12T11:03:45.356Z,25.17
2018-10-12T11:04:45.345Z,25.23
2018-10-12T11:05:45.333Z,25.10
2018-10-12T11:06:45.338Z,25.14
2018-10-12T11:07:45.315Z,25.23
2018-10-12T11:08:45.301Z,25.10
2018-10-12T11:09:45.290Z,24.88
2018-10-12T11:10:45.277Z,24.77
2018-10-12T11:11:45.284Z,24.74
2018-10-12T11:12:45.288Z,24.80
2018-10-12T11:13:45.247Z,24.76
2018-10-12T11:14:45.236Z,24.68
2018-10-12T11:15:45.223Z,24.76
2018-10-12T11:16:45.214Z,24.74
2018-10-12T11:17:45.217Z,24.66
2018-10-12T11:18:45.186Z,24.65
2018-10-12T11:19:45.233Z,24.73
2018-10-12T11:20:45.164Z,24.80
2018-10-12T11:21:45.153Z,24.89
2018-10-12T11:22:45.159Z,25.04
2018-10-12T11:23:45.129Z,25.03
2018-10-12T11:24:45.120Z,25.17
2018-10-12T11:25:45.108Z,25.08
2018-10-12T11:26:45.139Z,25.08
2018-10-12T11:27:45.100Z,25.03
2018-10-12T11:28:45.075Z,25.07
2018-10-12T11:29:45.063Z,25.22
2018-10-12T11:30:45.054Z,25.11
2018-10-12T11:31:45.044Z,25.10
2018-10-12T11:32:45.106Z,25.14
2018-10-12T11:33:45.021Z,24.99
2018-10-12T11:34:45.013Z,25.06
2018-10-12T11:35:44.998Z,24.80
2018-10-12T11:36:44.987Z,24.74
2018-10-12T11:37:45.000Z,24.74
2018-10-12T11:38:44.963Z,24.77
2018-10-12T11:39:44.950Z,24.80
2018-10-12T11:40:44.945Z,24.76
2018-10-12T11:41:44.933Z,24.89
2018-10-12T11:42:44.918Z,24.86
2018-10-12T11:43:44.925Z,24.92
2018-10-12T11:44:44.908Z,24.99
2018-10-12T11:45:44.888Z,25.11
2018-10-12T11:46:44.875Z,25.21
2018-10-12T11:47:44.864Z,25.36
2018-10-12T11:48:44.868Z,25.62
2018-10-12T11:49:44.877Z,25.70
2018-10-12T11:50:44.830Z,25.83
2018-10-12T11:51:44.818Z,25.77
2018-10-12T11:52:44.807Z,25.65
2018-10-12T11:53:44.810Z,25.58
2018-10-12T11:54:44.784Z,25.40
2018-10-12T11:55:44.778Z,25.32
2018-10-12T11:56:44.763Z,25.18
2018-10-12T11:57:44.752Z,24.91
2018-10-12T11:58:44.750Z,24.95
2018-10-12T11:59:44.731Z,25.10
2018-10-12T12:00:44.724Z,25.21
2018-10-12T12:01:44.707Z,25.23
2018-10-12T12:02:44.698Z,25.44
2018-10-12T12:03:44.709Z,25.81
2018-10-12T12:04:44.676Z,25.99
2018-10-12T12:05:44.666Z,26.13
2018-10-12T12:06:44.655Z,26.06
2018-10-12T12:07:44.641Z,25.91
2018-10-12T12:08:44.631Z,25.60
2018-10-12T12:09:44.640Z,25.59
2018-10-12T12:10:44.608Z,25.63
2018-10-12T12:11:44.609Z,25.60
2018-10-12T12:12:44.586Z,25.47
2018-10-12T12:13:44.626Z,25.51
2018-10-12T12:14:44.579Z,25.63
2018-10-12T12:15:44.553Z,25.87
2018-10-12T12:16:44.543Z,25.91
2018-10-12T12:17:44.543Z,26.09
2018-10-12T12:18:44.520Z,26.38
2018-10-12T12:19:44.524Z,26.38
2018-10-12T12:20:44.501Z,26.19
2018-10-12T12:21:44.486Z,26.15
2018-10-12T12:22:44.481Z,26.23
2018-10-12T12:23:44.464Z,26.28
2018-10-12T12:24:44.468Z,26.53
2018-10-12T12:25:44.442Z,26.52
2018-10-12T12:26:44.432Z,26.60
2018-10-12T12:27:44.422Z,26.55
2018-10-12T12:28:44.412Z,26.56
2018-10-12T12:29:44.411Z,26.41
2018-10-12T12:30:44.387Z,26.18
2018-10-12T12:31:44.378Z,25.81
2018-10-12T12:32:44.370Z,25.81
2018-10-12T12:33:44.353Z,25.77
2018-10-12T12:34:44.627Z,25.78
2018-10-12T12:35:44.809Z,25.83
2018-10-12T12:36:44.328Z,25.84
2018-10-12T12:37:44.310Z,25.78
2018-10-12T12:38:44.299Z,25.62
2018-10-12T12:39:44.291Z,25.62
2018-10-12T12:40:44.298Z,25.48
2018-10-12T12:41:44.339Z,25.63
2018-10-12T12:42:44.255Z,25.80
2018-10-12T12:43:44.243Z,25.91
2018-10-12T12:44:44.233Z,26.06
2018-10-12T12:45:44.236Z,26.43
2018-10-12T12:46:44.209Z,26.52
2018-10-12T12:47:44.315Z,26.60
2018-10-12T12:48:44.518Z,26.88
2018-10-12T12:49:44.179Z,26.93
2018-10-12T12:50:44.183Z,27.02
2018-10-12T12:51:44.158Z,27.20
2018-10-12T12:52:44.146Z,27.35